Time;durP1;ratioP1;P1;durP2;ratioP2;P2;SDS_P1;SDS_P2;PMS_P1;PMS_P2;Temp;Humidity;BMP_temperature;BMP_pressure;BME280_temperature;BME280_humidity;BME280_pressure;Samples;Min_cycle;Max_cycle;Signal;HPM_P1;HPM_P2
2020/07/11 00:00:06;;;;;;;3.1;2.6;;;;;;;18.03;100;959.8107;;;;
2020/07/11 00:02:32;;;;;;;4.6;2.8;;;;;;;18.07;100;959.8803;;;;
2020/07/11 00:04:57;;;;;;;4;2.5;;;;;;;18.01;100;959.962;;;;
2020/07/11 00:07:22;;;;;;;3.8;2.2;;;;;;;18.06;100;959.9655;;;;
2020/07/11 00:09:47;;;;;;;3.4;2.2;;;;;;;18.09;100;959.9073;;;;
2020/07/11 00:12:13;;;;;;;2.8;2.2;;;;;;;18.07;100;959.935;;;;
2020/07/11 00:14:38;;;;;;;3.5;2.2;;;;;;;18.02;100;959.885;;;;
2020/07/11 00:17:03;;;;;;;2.5;2;;;;;;;18;100;959.7853;;;;
2020/07/11 00:19:30;;;;;;;2.2;2;;;;;;;17.97;100;959.718;;;;
2020/07/11 00:21:55;;;;;;;3;2.2;;;;;;;17.83;100;959.8381;;;;
2020/07/11 00:24:20;;;;;;;4.3;2.2;;;;;;;17.99;100;959.8499;;;;
2020/07/11 00:26:45;;;;;;;3.5;2.2;;;;;;;18.04;100;959.8611;;;;
2020/07/11 00:29:35;;;;;;;3.9;2.4;;;;;;;18.08;100;959.8013;;;;
2020/07/11 00:32:47;;;;;;;2.9;2.4;;;;;;;17.94;100;959.884;;;;
2020/07/11 00:37:19;;;;;;;4.6;2.6;;;;;;;18.05;100;959.8831;;;;
2020/07/11 00:39:44;;;;;;;4.2;2.2;;;;;;;18.06;100;959.972;;;;
2020/07/11 00:42:09;;;;;;;2.6;2.2;;;;;;;18.08;100;959.9636;;;;
2020/07/11 00:44:34;;;;;;;2.9;2.3;;;;;;;18.07;100;960.076;;;;
2020/07/11 00:47:00;;;;;;;3.8;2.2;;;;;;;18.09;100;960.0673;;;;
2020/07/11 00:49:25;;;;;;;3.9;2.2;;;;;;;18.02;100;960.0269;;;;
2020/07/11 00:52:04;;;;;;;3.2;2.1;;;;;;;17.95;100;959.9345;;;;
2020/07/11 00:54:30;;;;;;;3.9;2.4;;;;;;;17.94;100;959.9508;;;;
2020/07/11 00:57:10;;;;;;;3.3;2.5;;;;;;;17.83;100;959.9436;;;;
2020/07/11 00:59:35;;;;;;;6;2.7;;;;;;;17.65;100;959.9565;;;;
2020/07/11 01:02:02;;;;;;;5;3.1;;;;;;;17.33;100;960.0338;;;;
2020/07/11 01:04:27;;;;;;;3.7;3;;;;;;;17.22;100;960.0929;;;;
2020/07/11 01:06:53;;;;;;;3.8;2.8;;;;;;;17.43;100;960.178;;;;
2020/07/11 01:09:18;;;;;;;3.8;2.9;;;;;;;17.54;100;960.1889;;;;
2020/07/11 01:11:44;;;;;;;4.9;3;;;;;;;17.55;100;960.2126;;;;
2020/07/11 01:14:09;;;;;;;4.4;2.5;;;;;;;17.55;100;960.2966;;;;
2020/07/11 01:16:48;;;;;;;5.3;2.8;;;;;;;17.54;100;960.2737;;;;
2020/07/11 01:19:13;;;;;;;4.7;2.7;;;;;;;17.54;100;960.2853;;;;
2020/07/11 01:21:40;;;;;;;3.7;2.7;;;;;;;17.44;100;960.1855;;;;
2020/07/11 01:24:05;;;;;;;4;2.5;;;;;;;17.42;100;960.1601;;;;
2020/07/11 01:26:32;;;;;;;5;2.7;;;;;;;17.24;100;960.0862;;;;
2020/07/11 01:28:57;;;;;;;5.2;2.9;;;;;;;17.12;100;960.1404;;;;
2020/07/11 01:31:26;;;;;;;3.5;2.8;;;;;;;17.04;100;960.2166;;;;
2020/07/11 01:33:58;;;;;;;3.8;2.8;;;;;;;17;100;960.1839;;;;
2020/07/11 01:36:23;;;;;;;3.2;2.3;;;;;;;17.15;100;960.1781;;;;
2020/07/11 01:38:48;;;;;;;3.8;2.7;;;;;;;17.15;100;960.1782;;;;
2020/07/11 01:41:13;;;;;;;3.9;2.5;;;;;;;17.05;100;960.0864;;;;
2020/07/11 01:43:38;;;;;;;4.5;2.9;;;;;;;17.14;100;960.0653;;;;
2020/07/11 01:46:03;;;;;;;4;2.9;;;;;;;16.96;100;960.0884;;;;
2020/07/11 01:48:29;;;;;;;3.7;2.7;;;;;;;17.13;100;960.0826;;;;
2020/07/11 01:50:54;;;;;;;3.3;2.7;;;;;;;16.94;100;960.1101;;;;
2020/07/11 01:53:19;;;;;;;3.7;2.6;;;;;;;16.93;100;960.1273;;;;
2020/07/11 01:55:46;;;;;;;4.3;2.7;;;;;;;16.87;100;960.0867;;;;
2020/07/11 01:58:11;;;;;;;4.2;3;;;;;;;16.8;100;960.0769;;;;
2020/07/11 02:00:36;;;;;;;4.7;3;;;;;;;16.71;100;960.082;;;;
2020/07/11 02:03:01;;;;;;;5.3;2.8;;;;;;;16.91;100;960.0157;;;;
2020/07/11 02:05:31;;;;;;;5.1;3.1;;;;;;;16.84;100;960.0317;;;;
2020/07/11 02:07:56;;;;;;;3.3;2.8;;;;;;;16.94;100;960.0591;;;;
2020/07/11 02:10:23;;;;;;;3.8;2.8;;;;;;;16.95;100;960.0292;;;;
2020/07/11 02:12:48;;;;;;;4.2;2.9;;;;;;;16.98;100;960.0234;;;;
2020/07/11 02:15:17;;;;;;;3.8;2.8;;;;;;;16.96;100;960.0078;;;;
2020/07/11 02:17:43;;;;;;;5;3;;;;;;;16.99;100;960.0652;;;;
2020/07/11 02:20:08;;;;;;;4.7;3.2;;;;;;;16.84;100;960.1105;;;;
2020/07/11 02:22:33;;;;;;;4.4;2.9;;;;;;;16.9;100;960.0577;;;;
2020/07/11 02:24:58;;;;;;;4.7;3.1;;;;;;;16.82;100;960.0556;;;;
2020/07/11 02:27:25;;;;;;;6.6;3.5;;;;;;;16.89;100;960.0807;;;;
2020/07/11 02:29:50;;;;;;;4.7;2.8;;;;;;;16.75;100;960.0556;;;;
2020/07/11 02:32:18;;;;;;;4.8;3.7;;;;;;;16.76;100;960.0344;;;;
2020/07/11 02:34:43;;;;;;;4.3;3.5;;;;;;;16.66;100;960.0203;;;;
2020/07/11 02:37:09;;;;;;;5.8;3.7;;;;;;;16.71;100;960.0952;;;;
2020/07/11 02:39:34;;;;;;;5.1;3.6;;;;;;;16.54;100;960.1124;;;;
2020/07/11 02:42:02;;;;;;;5.9;3.7;;;;;;;16.51;100;960.1682;;;;
2020/07/11 02:44:27;;;;;;;5.4;3.6;;;;;;;16.5;100;960.2283;;;;
2020/07/11 02:46:56;;;;;;;4.8;3.6;;;;;;;16.51;100;960.2603;;;;
2020/07/11 02:49:33;;;;;;;4;3.2;;;;;;;16.42;100;960.2919;;;;
2020/07/11 02:51:58;;;;;;;4.6;2.7;;;;;;;16.42;100;960.269;;;;
2020/07/11 02:54:23;;;;;;;4.5;3.5;;;;;;;16.43;100;960.2772;;;;
2020/07/11 02:56:50;;;;;;;4.4;3.3;;;;;;;16.35;100;960.2905;;;;
2020/07/11 02:59:15;;;;;;;4.7;3.5;;;;;;;16.39;100;960.279;;;;
2020/07/11 03:01:42;;;;;;;5.1;3.3;;;;;;;16.24;100;960.2413;;;;
2020/07/11 03:04:07;;;;;;;5.4;3.3;;;;;;;16.2;100;960.2308;;;;
2020/07/11 03:06:34;;;;;;;5;3.5;;;;;;;16.16;100;960.272;;;;
2020/07/11 03:08:59;;;;;;;3.7;3.3;;;;;;;16.2;100;960.2315;;;;
2020/07/11 03:11:26;;;;;;;4.8;3.6;;;;;;;16.22;100;960.2555;;;;
2020/07/11 03:13:51;;;;;;;4.4;3.6;;;;;;;16.21;100;960.2133;;;;
2020/07/11 03:16:18;;;;;;;5.2;3.3;;;;;;;16.08;100;960.1175;;;;
2020/07/11 03:18:43;;;;;;;4.4;3.5;;;;;;;15.98;100;960.084;;;;
2020/07/11 03:21:10;;;;;;;5.3;3.5;;;;;;;15.99;100;960.0427;;;;
2020/07/11 03:23:35;;;;;;;4.3;2.9;;;;;;;15.97;100;960.0386;;;;
2020/07/11 03:26:02;;;;;;;4.8;3.4;;;;;;;15.97;100;960.0337;;;;
2020/07/11 03:28:27;;;;;;;4.3;3.4;;;;;;;15.91;100;960.0321;;;;
2020/07/11 03:30:53;;;;;;;3.8;3;;;;;;;15.9;100;959.9681;;;;
2020/07/11 03:33:18;;;;;;;4.3;2.9;;;;;;;15.9;100;959.9919;;;;
2020/07/11 03:35:45;;;;;;;3.6;3.3;;;;;;;15.95;100;959.9804;;;;
2020/07/11 03:38:10;;;;;;;3.9;3.3;;;;;;;15.98;100;959.9105;;;;
2020/07/11 03:40:37;;;;;;;3.8;3.1;;;;;;;15.87;100;959.9097;;;;
2020/07/11 03:43:02;;;;;;;4;3.6;;;;;;;15.88;100;959.9203;;;;
2020/07/11 03:45:33;;;;;;;5.7;3.8;;;;;;;15.97;100;959.9016;;;;
2020/07/11 03:48:01;;;;;;;5.4;3.5;;;;;;;15.81;100;959.9533;;;;
2020/07/11 03:50:26;;;;;;;4.3;3.7;;;;;;;15.83;100;960.0759;;;;
2020/07/11 03:52:51;;;;;;;5.6;4.1;;;;;;;15.81;100;960.1218;;;;
2020/07/11 03:55:19;;;;;;;7;3.8;;;;;;;15.98;100;960.1062;;;;
2020/07/11 03:57:44;;;;;;;5.1;3.7;;;;;;;16.07;100;960.0781;;;;
2020/07/11 04:02:29;;;;;;;5;3.7;;;;;;;16.11;100;960.1766;;;;
2020/07/11 04:04:58;;;;;;;4.5;3.2;;;;;;;16;100;960.1092;;;;
2020/07/11 04:07:24;;;;;;;3.7;3.3;;;;;;;15.96;100;960.1578;;;;
2020/07/11 04:09:55;;;;;;;3.9;3.5;;;;;;;16.02;100;960.1981;;;;
2020/07/11 04:12:22;;;;;;;4;3.5;;;;;;;15.88;100;960.2458;;;;
2020/07/11 04:14:47;;;;;;;4.2;3.8;;;;;;;15.83;100;960.2838;;;;
2020/07/11 04:17:12;;;;;;;4.4;3.8;;;;;;;15.93;100;960.2459;;;;
2020/07/11 04:19:50;;;;;;;4.3;3.9;;;;;;;16.02;100;960.365;;;;
2020/07/11 04:22:17;;;;;;;5;4;;;;;;;16.06;100;960.3708;;;;
2020/07/11 04:24:42;;;;;;;4.3;3.8;;;;;;;16.14;100;960.3558;;;;
2020/07/11 04:27:10;;;;;;;4.7;4.1;;;;;;;16.14;100;960.3706;;;;
2020/07/11 04:29:35;;;;;;;4.3;3.1;;;;;;;15.98;100;960.4227;;;;
2020/07/11 04:32:00;;;;;;;4.7;3.6;;;;;;;16.21;100;960.4774;;;;
2020/07/11 04:34:26;;;;;;;4.7;4;;;;;;;16.2;100;960.5021;;;;
2020/07/11 04:36:52;;;;;;;4.4;3.7;;;;;;;16.09;100;960.4678;;;;
2020/07/11 04:39:19;;;;;;;5.2;4.1;;;;;;;16.18;100;960.428;;;;
2020/07/11 04:41:44;;;;;;;4.3;3.5;;;;;;;15.92;100;960.3413;;;;
2020/07/11 04:44:10;;;;;;;4.6;4.1;;;;;;;15.96;100;960.384;;;;
2020/07/11 04:46:35;;;;;;;5.7;4;;;;;;;16.01;100;960.4227;;;;
2020/07/11 04:49:05;;;;;;;4.8;4.3;;;;;;;16.03;100;960.4487;;;;
2020/07/11 04:51:30;;;;;;;4.7;3.9;;;;;;;16.14;100;960.558;;;;
2020/07/11 04:54:00;;;;;;;4.4;4;;;;;;;16.04;100;960.5213;;;;
2020/07/11 04:56:28;;;;;;;4.7;4.2;;;;;;;16.15;100;960.6972;;;;
2020/07/11 04:58:53;;;;;;;4.6;4.2;;;;;;;16.11;100;960.7983;;;;
2020/07/11 05:01:20;;;;;;;5.4;4.3;;;;;;;16.02;100;960.7736;;;;
2020/07/11 05:03:45;;;;;;;5;4.1;;;;;;;16.07;100;960.73;;;;
2020/07/11 05:06:12;;;;;;;5.2;4.2;;;;;;;16.12;100;960.8417;;;;
2020/07/11 05:08:37;;;;;;;4.3;3.9;;;;;;;16.1;100;960.8394;;;;
2020/07/11 05:11:03;;;;;;;4;3.6;;;;;;;15.97;100;960.7734;;;;
2020/07/11 05:13:28;;;;;;;4.3;3.9;;;;;;;16.14;100;960.7875;;;;
2020/07/11 05:15:55;;;;;;;5.2;4.3;;;;;;;16.24;100;960.8088;;;;
2020/07/11 05:18:20;;;;;;;4.4;4;;;;;;;16.23;100;960.9042;;;;
2020/07/11 05:20:46;;;;;;;5.1;4.6;;;;;;;16.17;100;961.0259;;;;
2020/07/11 05:23:11;;;;;;;4.8;4.4;;;;;;;16.22;100;961.0589;;;;
2020/07/11 05:25:37;;;;;;;5.4;4.5;;;;;;;16.15;100;961.1155;;;;
2020/07/11 05:28:02;;;;;;;5.4;4.8;;;;;;;16.11;100;961.1255;;;;
2020/07/11 05:30:31;;;;;;;5.2;4.5;;;;;;;16.32;100;961.1411;;;;
2020/07/11 05:32:56;;;;;;;5;4.5;;;;;;;16.28;100;961.1567;;;;
2020/07/11 05:35:22;;;;;;;5.2;4.5;;;;;;;16.22;100;961.1732;;;;
2020/07/11 05:37:47;;;;;;;4.8;4.3;;;;;;;16.43;100;961.1204;;;;
2020/07/11 05:40:15;;;;;;;4.8;4.4;;;;;;;16.48;100;961.2246;;;;
2020/07/11 05:42:40;;;;;;;5.5;4.4;;;;;;;16.37;100;961.2759;;;;
2020/07/11 05:45:07;;;;;;;6.5;4.4;;;;;;;15.98;100;961.2389;;;;
2020/07/11 05:47:32;;;;;;;4.8;4.3;;;;;;;15.9;100;961.2478;;;;
2020/07/11 05:49:58;;;;;;;5.1;4.6;;;;;;;15.67;100;961.2208;;;;
2020/07/11 05:52:23;;;;;;;5.9;4.5;;;;;;;16.02;100;961.2117;;;;
2020/07/11 05:54:50;;;;;;;5.6;4.6;;;;;;;16.04;100;961.1806;;;;
2020/07/11 05:57:15;;;;;;;4.5;4;;;;;;;16.01;100;961.2341;;;;
2020/07/11 05:59:41;;;;;;;5.4;4.7;;;;;;;15.35;100;961.3089;;;;
2020/07/11 06:02:07;;;;;;;6.4;5.8;;;;;;;15.56;100;961.321;;;;
2020/07/11 06:04:33;;;;;;;7.5;5.9;;;;;;;15.43;100;961.3795;;;;
2020/07/11 06:06:58;;;;;;;7;6.4;;;;;;;15.53;100;961.3546;;;;
2020/07/11 06:09:24;;;;;;;7.5;6.8;;;;;;;15.6;100;961.3777;;;;
2020/07/11 06:11:49;;;;;;;7.6;6.8;;;;;;;15.74;100;961.325;;;;
2020/07/11 06:14:16;;;;;;;6.5;5.9;;;;;;;15.88;100;961.3398;;;;
2020/07/11 06:16:41;;;;;;;5.8;5.3;;;;;;;15.93;100;961.4148;;;;
2020/07/11 06:19:06;;;;;;;6.2;5.7;;;;;;;15.74;100;961.4498;;;;
2020/07/11 06:21:32;;;;;;;6.4;5.8;;;;;;;15.86;100;961.4065;;;;
2020/07/11 06:23:58;;;;;;;7.3;6.6;;;;;;;15.97;100;961.4525;;;;
2020/07/11 06:26:23;;;;;;;7.7;6.4;;;;;;;15.93;100;961.4944;;;;
2020/07/11 06:28:49;;;;;;;7.7;7;;;;;;;15.95;100;961.5637;;;;
2020/07/11 06:31:14;;;;;;;7.6;6.6;;;;;;;15.86;100;961.5997;;;;
2020/07/11 06:33:40;;;;;;;7.1;6.4;;;;;;;16.08;100;961.6417;;;;
2020/07/11 06:36:05;;;;;;;6.7;6;;;;;;;15.87;100;961.6588;;;;
2020/07/11 06:38:31;;;;;;;7.4;6.7;;;;;;;15.86;100;961.7271;;;;
2020/07/11 06:40:56;;;;;;;6.8;6.2;;;;;;;16.04;100;961.7184;;;;
2020/07/11 06:43:22;;;;;;;7.9;7.3;;;;;;;16.03;100;961.7406;;;;
2020/07/11 06:45:47;;;;;;;8.2;7.4;;;;;;;15.84;100;961.7081;;;;
2020/07/11 06:48:14;;;;;;;8;7.2;;;;;;;15.81;100;961.7474;;;;
2020/07/11 06:50:39;;;;;;;8;7.2;;;;;;;15.77;100;961.6941;;;;
2020/07/11 06:53:05;;;;;;;8.5;7.7;;;;;;;15.83;100;961.7147;;;;
2020/07/11 06:55:30;;;;;;;9;8.2;;;;;;;15.85;100;961.8189;;;;
2020/07/11 06:57:56;;;;;;;8.9;8;;;;;;;15.87;100;961.7936;;;;
2020/07/11 07:00:21;;;;;;;8.2;7.5;;;;;;;15.96;100;961.8373;;;;
2020/07/11 07:02:46;;;;;;;8.1;7.4;;;;;;;15.95;100;961.8876;;;;
2020/07/11 07:05:13;;;;;;;7.9;7.2;;;;;;;15.92;100;961.9614;;;;
2020/07/11 07:07:38;;;;;;;6.9;6.3;;;;;;;15.98;100;961.955;;;;
2020/07/11 07:10:05;;;;;;;6.5;5.9;;;;;;;16.03;100;961.8968;;;;
2020/07/11 07:12:30;;;;;;;6.5;5.9;;;;;;;15.99;100;961.9952;;;;
2020/07/11 07:14:55;;;;;;;6.2;5.7;;;;;;;16.13;100;961.9815;;;;
2020/07/11 07:17:21;;;;;;;5.7;5.2;;;;;;;16.17;100;961.9824;;;;
2020/07/11 07:19:45;;;;;;;7.2;6.5;;;;;;;15.97;100;962.0222;;;;
2020/07/11 07:22:11;;;;;;;7.1;6.5;;;;;;;15.99;100;962.0906;;;;
2020/07/11 07:24:36;;;;;;;8.1;7.4;;;;;;;16;100;962.1102;;;;
2020/07/11 07:27:02;;;;;;;8.1;7.3;;;;;;;15.97;100;962.2285;;;;
2020/07/11 07:29:27;;;;;;;6.7;6.1;;;;;;;16.05;100;962.209;;;;
2020/07/11 07:31:54;;;;;;;6.9;6.3;;;;;;;16.09;100;962.2378;;;;
2020/07/11 07:34:19;;;;;;;7;6.4;;;;;;;15.9;100;962.2473;;;;
2020/07/11 07:36:46;;;;;;;6.8;6.3;;;;;;;15.8;100;962.2291;;;;
2020/07/11 07:39:11;;;;;;;6.5;5.9;;;;;;;15.83;100;962.2703;;;;
2020/07/11 07:41:37;;;;;;;5.3;4.9;;;;;;;15.8;100;962.2825;;;;
2020/07/11 07:44:02;;;;;;;7;6.5;;;;;;;15.65;100;962.3269;;;;
2020/07/11 07:46:28;;;;;;;6.6;6;;;;;;;15.74;100;962.3234;;;;
2020/07/11 07:48:53;;;;;;;6.5;5.9;;;;;;;15.68;100;962.3215;;;;
2020/07/11 07:51:19;;;;;;;6.4;5.9;;;;;;;15.68;100;962.3412;;;;
2020/07/11 07:53:44;;;;;;;5.7;5.2;;;;;;;15.68;100;962.3577;;;;
2020/07/11 07:56:10;;;;;;;5.4;5;;;;;;;15.71;100;962.3331;;;;
2020/07/11 07:58:36;;;;;;;6.6;6;;;;;;;15.64;100;962.4277;;;;
2020/07/11 08:01:01;;;;;;;5.8;5.3;;;;;;;15.69;100;962.4801;;;;
2020/07/11 08:03:26;;;;;;;6.5;5.9;;;;;;;15.69;100;962.5705;;;;
2020/07/11 08:05:51;;;;;;;6.7;6.1;;;;;;;15.76;100;962.5641;;;;
2020/07/11 08:08:16;;;;;;;6.5;5.9;;;;;;;15.93;100;962.5385;;;;
2020/07/11 08:10:43;;;;;;;6;5.5;;;;;;;16;100;962.5048;;;;
2020/07/11 08:13:08;;;;;;;6.2;5.6;;;;;;;15.99;100;962.551;;;;
2020/07/11 08:15:35;;;;;;;5.6;5.2;;;;;;;15.95;100;962.5731;;;;
2020/07/11 08:18:00;;;;;;;6;5.5;;;;;;;15.97;100;962.6125;;;;
2020/07/11 08:20:25;;;;;;;5.9;5.4;;;;;;;15.96;100;962.601;;;;
2020/07/11 08:22:51;;;;;;;5.4;4.9;;;;;;;16.08;100;962.58;;;;
2020/07/11 08:25:16;;;;;;;4.8;4.4;;;;;;;16.12;100;962.5602;;;;
2020/07/11 08:27:41;;;;;;;4.7;4.3;;;;;;;16.11;100;962.5941;;;;
2020/07/11 08:30:07;;;;;;;4.2;3.8;;;;;;;16.15;100;962.6911;;;;
2020/07/11 08:32:32;;;;;;;3.7;3.4;;;;;;;16.07;100;962.6672;;;;
2020/07/11 08:34:57;;;;;;;4.4;3.8;;;;;;;16.06;100;962.6697;;;;
2020/07/11 08:37:23;;;;;;;3.5;3.2;;;;;;;16.18;100;962.7224;;;;
2020/07/11 08:39:48;;;;;;;4.1;3.7;;;;;;;16.22;100;962.7572;;;;
2020/07/11 08:42:15;;;;;;;4.1;3.8;;;;;;;16.25;100;962.791;;;;
2020/07/11 08:44:40;;;;;;;3.5;3.2;;;;;;;16.45;100;962.7838;;;;
2020/07/11 08:47:06;;;;;;;3.5;3.2;;;;;;;16.58;100;962.8203;;;;
2020/07/11 08:49:32;;;;;;;3.4;3.1;;;;;;;16.54;100;962.7913;;;;
2020/07/11 08:51:57;;;;;;;3.3;3;;;;;;;16.48;100;962.7889;;;;
2020/07/11 08:54:27;;;;;;;3.8;3.4;;;;;;;16.51;100;962.8541;;;;
2020/07/11 08:56:52;;;;;;;3;2.8;;;;;;;16.41;100;963.0042;;;;
2020/07/11 08:59:17;;;;;;;4;3.4;;;;;;;16.18;100;962.9518;;;;
2020/07/11 09:01:42;;;;;;;3.2;3;;;;;;;16.32;100;962.967;;;;
2020/07/11 09:04:07;;;;;;;5.1;3.2;;;;;;;16.28;100;963.0262;;;;
2020/07/11 09:06:32;;;;;;;4.8;3.6;;;;;;;16.35;100;963.0592;;;;
2020/07/11 09:08:57;;;;;;;3.7;3.4;;;;;;;16.44;100;963.0676;;;;
2020/07/11 09:11:22;;;;;;;3.8;3.4;;;;;;;16.57;100;963.1147;;;;
2020/07/11 09:13:47;;;;;;;3.5;3.2;;;;;;;16.49;100;963.1328;;;;
2020/07/11 09:16:12;;;;;;;3.3;3;;;;;;;16.6;100;963.104;;;;
2020/07/11 09:18:38;;;;;;;3.4;2.9;;;;;;;16.63;100;963.0703;;;;
2020/07/11 09:21:03;;;;;;;3.7;3.3;;;;;;;16.62;100;963.0597;;;;
2020/07/11 09:24:26;;;;;;;3.9;3.5;;;;;;;16.94;100;963.0553;;;;
2020/07/11 09:28:29;;;;;;;3.9;3.6;;;;;;;16.92;100;963.0428;;;;
2020/07/11 09:31:08;;;;;;;3.3;3;;;;;;;16.9;100;963.0677;;;;
2020/07/11 09:34:48;;;;;;;3.7;3.4;;;;;;;17.1;100;963.1638;;;;
2020/07/11 09:37:13;;;;;;;3.3;3;;;;;;;17.13;100;963.1942;;;;
2020/07/11 09:39:39;;;;;;;3.6;3.2;;;;;;;17.2;100;963.2221;;;;
2020/07/11 09:42:04;;;;;;;4;3.3;;;;;;;17.11;100;963.2315;;;;
2020/07/11 09:44:37;;;;;;;4.7;3.5;;;;;;;17.22;100;963.2081;;;;
2020/07/11 09:47:03;;;;;;;3;2.7;;;;;;;17.18;100;963.1705;;;;
2020/07/11 09:49:28;;;;;;;2.8;2.6;;;;;;;17.15;100;963.1771;;;;
2020/07/11 09:51:53;;;;;;;3;2.5;;;;;;;17.25;100;963.2338;;;;
2020/07/11 09:54:22;;;;;;;2.9;2.7;;;;;;;17.27;100;963.2189;;;;
2020/07/11 09:56:47;;;;;;;3.3;2.9;;;;;;;17.21;100;963.2099;;;;
2020/07/11 09:59:16;;;;;;;3.3;2.7;;;;;;;17.2;100;963.2328;;;;
2020/07/11 10:01:41;;;;;;;3.2;2.9;;;;;;;17.04;100;963.331;;;;
2020/07/11 10:04:06;;;;;;;3;2.8;;;;;;;16.84;100;963.3105;;;;
2020/07/11 10:06:31;;;;;;;4;3.5;;;;;;;16.95;100;963.3145;;;;
2020/07/11 10:08:57;;;;;;;4.1;3.7;;;;;;;17.01;100;963.3261;;;;
2020/07/11 10:11:22;;;;;;;3;2.5;;;;;;;17.21;100;963.3351;;;;
2020/07/11 10:13:48;;;;;;;3.4;2.3;;;;;;;17.33;100;963.3284;;;;
2020/07/11 10:16:13;;;;;;;2.7;2.5;;;;;;;17.32;100;963.3261;;;;
2020/07/11 10:18:39;;;;;;;3.4;2.4;;;;;;;17.3;100;963.3787;;;;
2020/07/11 10:21:04;;;;;;;4.1;3.7;;;;;;;17.16;100;963.3787;;;;
2020/07/11 10:23:31;;;;;;;3;2.7;;;;;;;17.02;100;963.3798;;;;
2020/07/11 10:25:56;;;;;;;3.5;3;;;;;;;17.03;100;963.4547;;;;
2020/07/11 10:28:23;;;;;;;2.8;2.6;;;;;;;17.17;100;963.4758;;;;
2020/07/11 10:30:48;;;;;;;3;2.7;;;;;;;17.32;100;963.4373;;;;
2020/07/11 10:33:16;;;;;;;3.8;2.7;;;;;;;17.25;100;963.4405;;;;
2020/07/11 10:35:42;;;;;;;2.3;2.1;;;;;;;17.43;100;963.5176;;;;
2020/07/11 10:38:07;;;;;;;2.5;2;;;;;;;17.39;100;963.433;;;;
2020/07/11 10:40:32;;;;;;;2.3;1.9;;;;;;;17.48;100;963.4106;;;;
2020/07/11 10:42:59;;;;;;;1.8;1.5;;;;;;;17.69;100;963.392;;;;
2020/07/11 10:45:28;;;;;;;2;1.8;;;;;;;17.86;100;963.3961;;;;
2020/07/11 10:47:53;;;;;;;1.7;1.6;;;;;;;17.94;100;963.4359;;;;
2020/07/11 10:50:18;;;;;;;1.5;1.4;;;;;;;17.94;100;963.4459;;;;
2020/07/11 10:52:44;;;;;;;2.8;2.6;;;;;;;17.65;100;963.4045;;;;
2020/07/11 10:55:09;;;;;;;2.9;2.6;;;;;;;17.61;100;963.4161;;;;
2020/07/11 10:57:35;;;;;;;2.9;2.7;;;;;;;17.6;100;963.4722;;;;
2020/07/11 11:00:00;;;;;;;3.2;2.9;;;;;;;17.69;100;963.491;;;;
2020/07/11 11:02:25;;;;;;;3.2;3;;;;;;;17.57;100;963.4986;;;;
2020/07/11 11:04:50;;;;;;;3.8;2.6;;;;;;;17.74;100;963.5031;;;;
2020/07/11 11:07:16;;;;;;;2.6;2.4;;;;;;;18.11;100;963.4758;;;;
2020/07/11 11:09:41;;;;;;;3;2.7;;;;;;;18.31;100;963.452;;;;
2020/07/11 11:12:08;;;;;;;3.3;2.5;;;;;;;18.65;100;963.3798;;;;
2020/07/11 11:14:33;;;;;;;2.6;2;;;;;;;18.75;100;963.329;;;;
2020/07/11 11:16:58;;;;;;;2;1.8;;;;;;;18.73;100;963.2764;;;;
2020/07/11 11:19:26;;;;;;;2;1.6;;;;;;;18.54;100;963.3019;;;;
2020/07/11 11:21:51;;;;;;;1.5;1.4;;;;;;;18.52;100;963.37;;;;
2020/07/11 11:24:16;;;;;;;1.7;1.6;;;;;;;18.54;100;963.4383;;;;
2020/07/11 11:26:41;;;;;;;1.6;1.5;;;;;;;18.59;100;963.4711;;;;
2020/07/11 11:29:08;;;;;;;2;1.5;;;;;;;18.62;100;963.5162;;;;
2020/07/11 11:31:33;;;;;;;2.7;1.2;;;;;;;18.62;100;963.4313;;;;
2020/07/11 11:33:59;;;;;;;2.5;1.3;;;;;;;18.61;100;963.4973;;;;
2020/07/11 11:36:24;;;;;;;1.2;1;;;;;;;18.76;100;963.4902;;;;
2020/07/11 11:38:50;;;;;;;1.7;1.2;;;;;;;18.84;100;963.5414;;;;
2020/07/11 11:41:15;;;;;;;1.2;1.1;;;;;;;18.79;100;963.6163;;;;
2020/07/11 11:43:42;;;;;;;1.2;1.1;;;;;;;18.81;100;963.6308;;;;
2020/07/11 11:46:07;;;;;;;1.4;1.1;;;;;;;18.54;100;963.5803;;;;
2020/07/11 11:48:33;;;;;;;1.3;1.1;;;;;;;18.42;100;963.6345;;;;
2020/07/11 11:50:58;;;;;;;1.3;1.1;;;;;;;18.71;92.96289;963.6099;;;;
2020/07/11 11:53:25;;;;;;;1;0.9;;;;;;;18.64;99.62988;963.6731;;;;
2020/07/11 11:55:50;;;;;;;1.2;0.8;;;;;;;18.48;98.41016;963.7531;;;;
2020/07/11 11:58:16;;;;;;;1.6;0.7;;;;;;;18.49;94.2627;963.7408;;;;
2020/07/11 12:01:00;;;;;;;1.1;0.9;;;;;;;18.42;94.43555;963.7864;;;;
2020/07/11 12:03:24;;;;;;;1.8;0.8;;;;;;;18.43;89.84375;963.7353;;;;
2020/07/11 12:05:32;;;;;;;0.9;0.8;;;;;;;18.54;89;963.784;;;;
2020/07/11 12:07:57;;;;;;;1.2;0.8;;;;;;;18.52;90.47168;963.8031;;;;
2020/07/11 12:10:22;;;;;;;1.2;1;;;;;;;18.38;100;963.7438;;;;
2020/07/11 12:12:50;;;;;;;1.2;0.9;;;;;;;18.46;96.8457;963.7484;;;;
2020/07/11 12:15:14;;;;;;;5;2.2;;;;;;;18.63;100;963.7341;;;;
2020/07/11 12:17:40;;;;;;;2;1.2;;;;;;;18.81;87.57617;963.7358;;;;
2020/07/11 12:20:05;;;;;;;2.2;1.2;;;;;;;18.96;90.48145;963.6752;;;;
2020/07/11 12:22:32;;;;;;;3.7;2.7;;;;;;;19.13;84.43652;963.6534;;;;
2020/07/11 12:24:57;;;;;;;1.8;1.1;;;;;;;19.01;81.57422;963.6856;;;;
2020/07/11 12:27:23;;;;;;;2.7;1.6;;;;;;;19.15;91.27246;963.6508;;;;
2020/07/11 12:29:48;;;;;;;1.8;1.2;;;;;;;19.22;84.14648;963.7371;;;;
2020/07/11 12:32:54;;;;;;;1.6;1;;;;;;;19.28;82.17383;963.8059;;;;
2020/07/11 12:35:19;;;;;;;1.6;1.5;;;;;;;19.28;86.04883;963.8134;;;;
2020/07/11 12:37:46;;;;;;;1.9;1;;;;;;;19.22;80.7207;963.7626;;;;
2020/07/11 12:40:11;;;;;;;1.7;0.8;;;;;;;19.24;80.55957;963.8178;;;;
2020/07/11 12:42:37;;;;;;;2;0.9;;;;;;;19.33;82.20801;963.8701;;;;
2020/07/11 12:45:03;;;;;;;1.7;0.8;;;;;;;19.37;80.03027;963.8589;;;;
2020/07/11 12:47:32;;;;;;;2.6;0.7;;;;;;;19.32;78.21387;963.8608;;;;
2020/07/11 12:49:57;;;;;;;0.9;0.8;;;;;;;19.31;79.13965;963.8957;;;;
2020/07/11 12:52:22;;;;;;;1.3;0.7;;;;;;;19.46;79.04785;963.8399;;;;
2020/07/11 12:54:47;;;;;;;1.9;0.8;;;;;;;19.4;76.64258;963.8141;;;;
2020/07/11 12:57:13;;;;;;;0.8;0.8;;;;;;;19.49;78.6084;963.8265;;;;
2020/07/11 12:59:38;;;;;;;0.9;0.7;;;;;;;19.4;77.99121;963.795;;;;
2020/07/11 13:02:04;;;;;;;1.3;0.7;;;;;;;;;;;;;
2020/07/11 13:04:29;;;;;;;2.1;1.5;;;;;;;;;;;;;
2020/07/11 13:06:54;;;;;;;1.6;1.3;;;;;;;;;;;;;
2020/07/11 13:09:19;;;;;;;2.2;1.5;;;;;;;;;;;;;
2020/07/11 13:11:44;;;;;;;1;0.9;;;;;;;;;;;;;
2020/07/11 13:14:09;;;;;;;1.2;0.9;;;;;;;;;;;;;
2020/07/11 13:16:35;;;;;;;1.7;1;;;;;;;;;;;;;
2020/07/11 13:19:00;;;;;;;1.3;1;;;;;;;;;;;;;
2020/07/11 13:21:25;;;;;;;1;0.9;;;;;;;;;;;;;
2020/07/11 13:23:50;;;;;;;1.3;1;;;;;;;;;;;;;
2020/07/11 13:26:15;;;;;;;2.5;1.2;;;;;;;;;;;;;
2020/07/11 13:28:40;;;;;;;1.9;1;;;;;;;;;;;;;
2020/07/11 13:31:05;;;;;;;1.7;1.1;;;;;;;;;;;;;
2020/07/11 13:33:30;;;;;;;1.8;0.9;;;;;;;;;;;;;
2020/07/11 13:35:55;;;;;;;1.6;0.8;;;;;;;;;;;;;
2020/07/11 13:38:21;;;;;;;1.4;0.8;;;;;;;;;;;;;
2020/07/11 13:40:45;;;;;;;1.1;0.7;;;;;;;;;;;;;
2020/07/11 13:43:10;;;;;;;2.2;1;;;;;;;;;;;;;
2020/07/11 13:45:35;;;;;;;1.3;0.7;;;;;;;;;;;;;
2020/07/11 13:48:01;;;;;;;1.6;0.7;;;;;;;;;;;;;
2020/07/11 13:50:26;;;;;;;1.2;0.7;;;;;;;;;;;;;
2020/07/11 13:52:51;;;;;;;4;3.3;;;;;;;;;;;;;
2020/07/11 13:55:16;;;;;;;1.8;1.4;;;;;;;;;;;;;
2020/07/11 13:57:41;;;;;;;2.2;1.1;;;;;;;;;;;;;
2020/07/11 14:00:06;;;;;;;1.6;1.1;;;;;;;;;;;;;
2020/07/11 14:02:32;;;;;;;1;0.8;;;;;;;;;;;;;
2020/07/11 14:04:56;;;;;;;1.4;0.8;;;;;;;;;;;;;
2020/07/11 14:07:21;;;;;;;1;0.9;;;;;;;;;;;;;
2020/07/11 14:09:46;;;;;;;1.6;0.8;;;;;;;;;;;;;
2020/07/11 14:12:12;;;;;;;2.3;1.8;;;;;;;;;;;;;
2020/07/11 14:14:37;;;;;;;5.9;4.9;;;;;;;;;;;;;
2020/07/11 14:17:02;;;;;;;2.9;1.8;;;;;;;;;;;;;
2020/07/11 14:19:27;;;;;;;4.5;3.5;;;;;;;;;;;;;
2020/07/11 14:21:52;;;;;;;2.2;1.5;;;;;;;;;;;;;
2020/07/11 14:24:17;;;;;;;1.6;1.3;;;;;;;;;;;;;
2020/07/11 14:26:42;;;;;;;3.7;1.3;;;;;;;;;;;;;
2020/07/11 14:29:08;;;;;;;2;1;;;;;;;;;;;;;
2020/07/11 14:31:32;;;;;;;4.3;2.3;;;;;;;;;;;;;
2020/07/11 14:33:57;;;;;;;3.3;1.7;;;;;;;;;;;;;
2020/07/11 14:36:22;;;;;;;8.1;5.6;;;;;;;;;;;;;
2020/07/11 14:38:47;;;;;;;1.5;1.2;;;;;;;;;;;;;
2020/07/11 14:41:12;;;;;;;0.9;0.9;;;;;;;;;;;;;
2020/07/11 14:43:38;;;;;;;3.6;1.2;;;;;;;;;;;;;
2020/07/11 14:46:03;;;;;;;1.9;1.4;;;;;;;;;;;;;
2020/07/11 14:48:28;;;;;;;2.5;1;;;;;;;;;;;;;
2020/07/11 14:50:53;;;;;;;2.2;1.2;;;;;;;;;;;;;
2020/07/11 14:53:18;;;;;;;1.6;0.9;;;;;;;;;;;;;
2020/07/11 14:55:43;;;;;;;1.8;0.7;;;;;;;;;;;;;
2020/07/11 14:58:08;;;;;;;2.5;0.9;;;;;;;;;;;;;
2020/07/11 15:00:34;;;;;;;1.7;0.8;;;;;;;;;;;;;
2020/07/11 15:02:59;;;;;;;1.4;0.9;;;;;;;;;;;;;
2020/07/11 15:05:24;;;;;;;2.7;0.8;;;;;;;;;;;;;
2020/07/11 15:07:50;;;;;;;1.1;0.7;;;;;;;;;;;;;
2020/07/11 15:10:15;;;;;;;2;0.6;;;;;;;;;;;;;
2020/07/11 15:12:40;;;;;;;0.9;0.6;;;;;;;;;;;;;
2020/07/11 15:15:05;;;;;;;1.2;0.6;;;;;;;;;;;;;
2020/07/11 15:17:30;;;;;;;1.8;0.7;;;;;;;;;;;;;
2020/07/11 15:19:56;;;;;;;0.7;0.5;;;;;;;;;;;;;
2020/07/11 15:22:21;;;;;;;0.8;0.6;;;;;;;;;;;;;
2020/07/11 15:24:46;;;;;;;1.2;0.6;;;;;;;;;;;;;
2020/07/11 15:27:11;;;;;;;1.6;0.7;;;;;;;;;;;;;
2020/07/11 15:29:36;;;;;;;1.5;0.7;;;;;;;;;;;;;
2020/07/11 15:32:02;;;;;;;1.2;0.6;;;;;;;;;;;;;
2020/07/11 15:34:27;;;;;;;1.1;0.8;;;;;;;;;;;;;
2020/07/11 15:36:52;;;;;;;0.6;0.6;;;;;;;;;;;;;
2020/07/11 15:39:17;;;;;;;1.1;0.6;;;;;;;;;;;;;
2020/07/11 15:41:42;;;;;;;0.9;0.6;;;;;;;;;;;;;
2020/07/11 15:44:07;;;;;;;1;0.7;;;;;;;;;;;;;
2020/07/11 15:46:33;;;;;;;0.7;0.6;;;;;;;;;;;;;
2020/07/11 15:48:58;;;;;;;1;0.6;;;;;;;;;;;;;
2020/07/11 15:51:23;;;;;;;1.4;0.6;;;;;;;;;;;;;
2020/07/11 15:53:50;;;;;;;2.1;0.6;;;;;;;;;;;;;
2020/07/11 15:56:14;;;;;;;1.9;0.8;;;;;;;;;;;;;
2020/07/11 15:58:40;;;;;;;0.9;0.7;;;;;;;;;;;;;
2020/07/11 16:01:05;;;;;;;2;0.6;;;;;;;;;;;;;
2020/07/11 16:03:30;;;;;;;1;0.7;;;;;;;;;;;;;
2020/07/11 16:05:56;;;;;;;1;0.8;;;;;;;;;;;;;
2020/07/11 16:08:21;;;;;;;1.1;0.8;;;;;;;;;;;;;
2020/07/11 16:10:47;;;;;;;1.7;0.7;;;;;;;;;;;;;
2020/07/11 16:13:12;;;;;;;1.6;0.8;;;;;;;;;;;;;
2020/07/11 16:15:37;;;;;;;1.5;0.8;;;;;;;;;;;;;
2020/07/11 16:18:02;;;;;;;1.1;0.6;;;;;;;;;;;;;
2020/07/11 16:20:28;;;;;;;2.1;0.8;;;;;;;;;;;;;
2020/07/11 16:22:59;;;;;;;1.9;0.8;;;;;;;;;;;;;